createdAt,value
2018-11-27T00:01:32.007Z,15.23
2018-11-27T00:03:41.906Z,14.97
2018-11-27T00:05:49.795Z,17.60
2018-11-27T00:07:55.003Z,17.03
2018-11-27T00:09:59.886Z,16.93
2018-11-27T00:12:04.708Z,15.73
2018-11-27T00:14:09.716Z,15.50
2018-11-27T00:16:14.644Z,14.00
2018-11-27T00:18:19.519Z,15.97
2018-11-27T00:20:24.337Z,15.53
2018-11-27T00:22:29.144Z,15.77
2018-11-27T00:24:33.915Z,16.70
2018-11-27T00:26:38.863Z,16.87
2018-11-27T00:28:43.794Z,15.33
2018-11-27T00:30:48.890Z,15.70
2018-11-27T00:32:53.946Z,16.37
2018-11-27T00:34:58.846Z,15.90
2018-11-27T00:37:04.660Z,16.90
2018-11-27T00:39:12.403Z,15.80
2018-11-27T00:41:17.180Z,17.80
2018-11-27T00:43:22.050Z,14.10
2018-11-27T00:45:27.365Z,15.33
2018-11-27T00:47:32.224Z,18.10
2018-11-27T00:49:37.254Z,16.97
2018-11-27T00:51:42.146Z,14.43
2018-11-27T00:53:47.003Z,16.60
2018-11-27T00:55:52.379Z,15.57
2018-11-27T00:57:57.586Z,15.13
2018-11-27T01:00:02.437Z,15.67
2018-11-27T01:02:07.812Z,16.13
2018-11-27T01:04:12.827Z,17.10
2018-11-27T01:06:17.703Z,15.50
2018-11-27T01:08:22.745Z,14.37
2018-11-27T01:10:28.036Z,16.23
2018-11-27T01:12:32.832Z,15.10
2018-11-27T01:14:37.781Z,16.60
2018-11-27T01:16:42.581Z,15.20
2018-11-27T01:18:47.528Z,14.97
2018-11-27T01:20:52.357Z,14.50
2018-11-27T01:22:57.477Z,17.07
2018-11-27T01:25:02.578Z,15.77
2018-11-27T01:27:08.034Z,15.90
2018-11-27T01:29:13.090Z,15.40
2018-11-27T01:31:18.024Z,15.40
2018-11-27T01:33:23.114Z,16.00
2018-11-27T01:35:27.929Z,15.70
2018-11-27T01:37:32.852Z,15.37
2018-11-27T01:39:37.788Z,15.67
2018-11-27T01:41:42.654Z,15.90
2018-11-27T01:43:47.460Z,14.50
2018-11-27T01:45:52.329Z,18.07
2018-11-27T01:47:57.131Z,16.00
2018-11-27T01:50:02.016Z,14.90
2018-11-27T01:52:07.364Z,17.50
2018-11-27T01:54:12.161Z,15.80
2018-11-27T01:56:16.970Z,16.60
2018-11-27T01:58:21.909Z,14.70
2018-11-27T02:00:29.763Z,16.73
2018-11-27T02:02:34.768Z,17.33
2018-11-27T02:04:40.093Z,14.33
2018-11-27T02:06:45.041Z,17.60
2018-11-27T02:08:49.890Z,16.90
2018-11-27T02:10:54.772Z,16.23
2018-11-27T02:13:01.362Z,16.17
2018-11-27T02:15:05.105Z,14.07
2018-11-27T02:17:10.121Z,15.80
2018-11-27T02:19:14.934Z,16.80
2018-11-27T02:21:19.841Z,16.40
2018-11-27T02:23:24.778Z,17.30
2018-11-27T02:25:31.227Z,15.13
2018-11-27T02:27:36.108Z,16.20
2018-11-27T02:29:40.861Z,17.50
2018-11-27T02:31:45.817Z,16.43
2018-11-27T02:33:50.712Z,16.63
2018-11-27T02:35:55.730Z,16.03
2018-11-27T02:38:00.516Z,14.57
2018-11-27T02:40:07.101Z,16.53
2018-11-27T02:42:12.090Z,16.23
2018-11-27T02:44:16.906Z,16.53
2018-11-27T02:46:21.925Z,16.30
2018-11-27T02:48:26.820Z,16.10
2018-11-27T02:50:31.696Z,16.00
2018-11-27T02:52:36.553Z,15.70
2018-11-27T02:54:41.388Z,16.27
2018-11-27T02:56:46.367Z,16.50
2018-11-27T02:58:51.181Z,16.83
2018-11-27T03:00:56.410Z,15.13
2018-11-27T03:03:01.250Z,14.43
2018-11-27T03:05:08.935Z,15.20
2018-11-27T03:07:13.706Z,16.10
2018-11-27T03:09:18.750Z,16.17
2018-11-27T03:11:23.657Z,14.00
2018-11-27T03:13:28.487Z,15.27
2018-11-27T03:15:33.421Z,14.73
2018-11-27T03:17:38.302Z,16.67
2018-11-27T03:19:43.079Z,16.10
2018-11-27T03:21:47.986Z,15.80
2018-11-27T03:23:52.817Z,15.37
2018-11-27T03:25:57.664Z,16.13
2018-11-27T03:28:02.517Z,17.00
2018-11-27T03:30:17.825Z,15.23
2018-11-27T03:32:22.669Z,14.37
2018-11-27T03:34:27.486Z,15.40
2018-11-27T03:36:32.274Z,15.80
2018-11-27T03:38:37.146Z,16.80
2018-11-27T03:40:41.955Z,14.93
2018-11-27T03:42:46.833Z,16.27
2018-11-27T03:44:51.701Z,17.10
2018-11-27T03:46:56.523Z,15.77
2018-11-27T03:49:01.349Z,17.10
2018-11-27T03:51:06.209Z,16.70
2018-11-27T03:53:11.157Z,14.80
2018-11-27T03:55:16.105Z,15.03
2018-11-27T03:57:21.103Z,15.17
2018-11-27T03:59:26.108Z,14.93
2018-11-27T04:01:30.993Z,16.37
2018-11-27T04:03:36.085Z,16.60
2018-11-27T04:05:41.904Z,17.60
2018-11-27T04:07:46.878Z,15.17
2018-11-27T04:09:51.722Z,15.50
2018-11-27T04:11:56.717Z,15.23
2018-11-27T04:14:01.681Z,15.90
2018-11-27T04:16:06.654Z,15.57
2018-11-27T04:18:11.597Z,15.17
2018-11-27T04:20:16.490Z,15.73
2018-11-27T04:22:21.480Z,15.97
2018-11-27T04:24:26.296Z,15.77
2018-11-27T04:26:31.034Z,14.83
2018-11-27T04:28:36.044Z,16.37
2018-11-27T04:30:41.078Z,15.80
2018-11-27T04:32:45.818Z,14.07
2018-11-27T04:34:50.528Z,15.70
2018-11-27T04:36:55.313Z,17.20
2018-11-27T04:39:00.756Z,15.50
2018-11-27T04:41:06.109Z,15.83
2018-11-27T04:43:10.817Z,15.00
2018-11-27T04:45:21.429Z,14.47
2018-11-27T04:47:26.341Z,14.47
2018-11-27T04:49:31.154Z,16.90
2018-11-27T04:51:36.027Z,14.70
2018-11-27T04:53:41.007Z,15.00
2018-11-27T04:55:46.062Z,15.27
2018-11-27T04:57:53.511Z,14.67
2018-11-27T04:59:58.397Z,14.93
2018-11-27T05:02:03.144Z,13.83
2018-11-27T05:04:07.963Z,14.83
2018-11-27T05:06:12.785Z,12.97
2018-11-27T05:08:17.575Z,14.20
2018-11-27T05:10:23.630Z,15.10
2018-11-27T05:12:28.676Z,14.30
2018-11-27T05:14:33.451Z,14.37
2018-11-27T05:16:38.160Z,14.20
2018-11-27T05:18:42.971Z,15.00
2018-11-27T05:20:47.717Z,14.37
2018-11-27T05:22:52.498Z,14.10
2018-11-27T05:24:57.706Z,15.23
2018-11-27T05:27:02.578Z,13.67
2018-11-27T05:29:07.790Z,12.70
2018-11-27T05:31:12.550Z,14.17
2018-11-27T05:33:17.377Z,15.07
2018-11-27T05:35:27.943Z,14.53
2018-11-27T05:37:32.810Z,15.20
2018-11-27T05:39:38.559Z,13.17
2018-11-27T05:41:43.474Z,16.10
2018-11-27T05:43:48.153Z,15.13
2018-11-27T05:45:52.872Z,14.20
2018-11-27T05:47:57.605Z,14.43
2018-11-27T05:50:02.313Z,12.97
2018-11-27T05:52:07.489Z,14.27
2018-11-27T05:54:12.341Z,13.00
2018-11-27T05:56:17.130Z,13.80
2018-11-27T05:58:21.910Z,14.53
2018-11-27T06:00:28.437Z,12.70
2018-11-27T06:02:34.225Z,12.80
2018-11-27T06:04:39.157Z,11.40
2018-11-27T06:06:44.249Z,12.50
2018-11-27T06:08:49.175Z,12.53
2018-11-27T06:10:53.955Z,12.30
2018-11-27T06:12:59.091Z,11.93
2018-11-27T06:15:04.527Z,12.33
2018-11-27T06:17:09.507Z,12.67
2018-11-27T06:19:14.398Z,11.80
2018-11-27T06:21:19.301Z,12.80
2018-11-27T06:23:24.313Z,13.63
2018-11-27T06:25:30.405Z,14.10
2018-11-27T06:27:35.194Z,12.80
2018-11-27T06:29:40.035Z,12.30
2018-11-27T06:31:44.918Z,11.30
2018-11-27T06:33:49.803Z,12.93
2018-11-27T06:35:54.573Z,10.73
2018-11-27T06:37:59.393Z,10.63
2018-11-27T06:40:05.482Z,12.10
2018-11-27T06:42:10.305Z,11.90
2018-11-27T06:44:15.301Z,13.00
2018-11-27T06:46:20.395Z,12.40
2018-11-27T06:48:25.272Z,11.80
2018-11-27T06:50:30.033Z,12.90
2018-11-27T06:52:35.137Z,11.83
2018-11-27T06:54:40.171Z,12.20
2018-11-27T06:56:44.955Z,12.37
2018-11-27T06:58:49.717Z,12.87
2018-11-27T07:00:54.412Z,12.90
2018-11-27T07:03:00.130Z,11.87
2018-11-27T07:05:05.159Z,11.97
2018-11-27T07:07:10.734Z,11.60
2018-11-27T07:09:15.551Z,11.83
2018-11-27T07:11:20.401Z,11.30
2018-11-27T07:13:26.317Z,12.00
2018-11-27T07:15:31.156Z,13.30
2018-11-27T07:17:35.874Z,12.10
2018-11-27T07:19:40.585Z,11.37
2018-11-27T07:21:45.334Z,11.40
2018-11-27T07:23:50.099Z,11.13
2018-11-27T07:25:55.017Z,12.60
2018-11-27T07:27:59.871Z,11.97
2018-11-27T07:30:05.494Z,12.87
2018-11-27T07:32:10.452Z,11.40
2018-11-27T07:34:15.433Z,12.10
2018-11-27T07:36:20.405Z,10.73
2018-11-27T07:38:25.215Z,10.47
2018-11-27T07:40:30.203Z,10.93
2018-11-27T07:42:35.066Z,12.50
2018-11-27T07:44:39.881Z,12.60
2018-11-27T07:46:44.662Z,11.23
2018-11-27T07:48:49.562Z,11.60
2018-11-27T07:50:54.327Z,11.37
2018-11-27T07:53:00.037Z,11.40
2018-11-27T07:55:04.814Z,11.43
2018-11-27T07:57:09.637Z,11.23
2018-11-27T07:59:14.521Z,10.57
2018-11-27T08:01:19.352Z,10.63
2018-11-27T08:03:24.310Z,10.87
2018-11-27T08:05:33.753Z,11.50
2018-11-27T08:07:38.825Z,11.67
2018-11-27T08:09:43.694Z,10.70
2018-11-27T08:11:48.462Z,12.00
2018-11-27T08:13:53.269Z,13.87
2018-11-27T08:15:58.056Z,12.07
2018-11-27T08:18:02.889Z,11.07
2018-11-27T08:20:10.728Z,12.40
2018-11-27T08:22:15.505Z,10.30
2018-11-27T08:24:20.317Z,10.97
2018-11-27T08:26:25.072Z,12.00
2018-11-27T08:28:29.883Z,11.10
2018-11-27T08:30:34.697Z,10.80
2018-11-27T08:32:39.923Z,10.67
2018-11-27T08:34:44.684Z,9.93
2018-11-27T08:36:50.810Z,11.83
2018-11-27T08:38:55.545Z,12.43
2018-11-27T08:41:00.270Z,12.47
2018-11-27T08:43:05.421Z,12.00
2018-11-27T08:45:12.126Z,9.30
2018-11-27T08:47:17.105Z,10.67
2018-11-27T08:49:21.916Z,11.60
2018-11-27T08:51:26.698Z,12.30
2018-11-27T08:53:31.404Z,11.07
2018-11-27T08:55:39.344Z,10.30
2018-11-27T08:57:45.757Z,13.60
2018-11-27T08:59:50.528Z,13.50
2018-11-27T09:01:55.276Z,12.20
2018-11-27T09:04:00.043Z,10.30
2018-11-27T09:06:05.123Z,11.40
2018-11-27T09:08:10.553Z,10.23
2018-11-27T09:10:20.742Z,11.20
2018-11-27T09:12:25.531Z,12.03
2018-11-27T09:14:30.274Z,9.60
2018-11-27T09:16:35.002Z,11.37
2018-11-27T09:18:39.739Z,10.33
2018-11-27T09:20:44.552Z,10.00
2018-11-27T09:22:49.293Z,10.47
2018-11-27T09:24:54.055Z,10.43
2018-11-27T09:26:58.845Z,10.87
2018-11-27T09:29:03.826Z,10.40
2018-11-27T09:31:09.620Z,10.90
2018-11-27T09:33:14.414Z,10.40
2018-11-27T09:35:19.278Z,10.57
2018-11-27T09:37:24.118Z,10.03
2018-11-27T09:39:28.903Z,9.80
2018-11-27T09:41:33.770Z,9.00
2018-11-27T09:43:38.463Z,9.73
2018-11-27T09:45:44.752Z,10.40
2018-11-27T09:47:53.012Z,10.33
2018-11-27T09:49:57.755Z,10.00
2018-11-27T09:52:02.611Z,9.10
2018-11-27T09:54:07.789Z,10.87
2018-11-27T09:56:12.491Z,9.67
2018-11-27T09:58:17.384Z,10.97
2018-11-27T10:00:25.729Z,9.37
2018-11-27T10:02:30.458Z,9.83
2018-11-27T10:04:35.164Z,8.90
2018-11-27T10:06:39.998Z,9.53
2018-11-27T10:08:44.870Z,9.40
2018-11-27T10:10:49.844Z,7.87
2018-11-27T10:12:54.820Z,9.47
2018-11-27T10:14:59.619Z,9.17
2018-11-27T10:17:04.422Z,8.33
2018-11-27T10:19:09.224Z,7.90
2018-11-27T10:21:14.028Z,8.43
2018-11-27T10:23:18.792Z,8.47
2018-11-27T10:25:23.560Z,8.67
2018-11-27T10:27:28.387Z,8.33
2018-11-27T10:29:33.326Z,9.03
2018-11-27T10:31:38.111Z,7.77
2018-11-27T10:33:42.899Z,8.57
2018-11-27T10:35:53.690Z,8.37
2018-11-27T10:37:58.452Z,8.53
2018-11-27T10:40:03.172Z,8.53
2018-11-27T10:42:08.488Z,7.90
2018-11-27T10:44:13.273Z,9.10
2018-11-27T10:46:18.077Z,7.17
2018-11-27T10:48:22.937Z,7.10
2018-11-27T10:50:27.793Z,7.70
2018-11-27T10:52:32.521Z,7.57
2018-11-27T10:54:37.222Z,6.67
2018-11-27T10:56:42.022Z,8.67
2018-11-27T10:58:46.756Z,6.50
2018-11-27T11:00:56.598Z,7.20
2018-11-27T11:04:05.487Z,7.53
2018-11-27T11:06:10.727Z,7.30
2018-11-27T11:08:15.460Z,6.67
2018-11-27T11:10:20.536Z,7.27
2018-11-27T11:12:25.461Z,6.83
2018-11-27T11:14:30.157Z,7.97
2018-11-27T11:16:35.061Z,7.10
2018-11-27T11:18:39.890Z,8.20
2018-11-27T11:20:44.690Z,7.60
2018-11-27T11:22:49.488Z,8.13
2018-11-27T11:24:54.305Z,6.90
2018-11-27T11:26:59.037Z,7.37
2018-11-27T11:29:03.918Z,7.27
2018-11-27T11:31:08.852Z,6.50
2018-11-27T11:33:13.839Z,6.87
2018-11-27T11:35:18.640Z,5.93
2018-11-27T11:37:23.585Z,7.70
2018-11-27T11:39:28.432Z,6.50
2018-11-27T11:41:33.209Z,6.90
2018-11-27T11:43:37.929Z,5.87
2018-11-27T11:45:42.686Z,6.10
2018-11-27T11:47:47.511Z,7.17
2018-11-27T11:49:52.218Z,6.87
2018-11-27T11:52:00.001Z,6.80
2018-11-27T11:54:04.751Z,7.17
2018-11-27T11:56:10.403Z,7.10
2018-11-27T11:58:15.075Z,7.13
2018-11-27T12:00:32.946Z,7.30
2018-11-27T12:02:37.741Z,9.07
2018-11-27T12:04:45.815Z,7.77
2018-11-27T12:06:55.620Z,7.83
2018-11-27T12:09:00.624Z,7.57
2018-11-27T12:11:06.050Z,6.80
2018-11-27T12:13:12.086Z,6.90
2018-11-27T12:15:19.170Z,7.47
2018-11-27T12:17:24.014Z,6.80
2018-11-27T12:19:29.069Z,6.70
2018-11-27T12:21:34.014Z,7.13
2018-11-27T12:25:55.501Z,6.97
2018-11-27T12:28:00.356Z,7.03
2018-11-27T12:30:08.837Z,7.57
2018-11-27T12:32:13.783Z,7.13
2018-11-27T12:34:18.657Z,7.10
2018-11-27T12:36:23.809Z,6.60
2018-11-27T12:38:28.735Z,7.37
2018-11-27T12:40:33.509Z,6.60
2018-11-27T12:42:38.389Z,8.73
2018-11-27T12:44:43.350Z,7.50
2018-11-27T12:46:47.977Z,7.50
2018-11-27T12:48:52.912Z,8.23
2018-11-27T12:50:57.763Z,6.33
2018-11-27T12:53:02.618Z,7.03
2018-11-27T12:55:10.021Z,7.50
2018-11-27T12:57:14.804Z,7.93
2018-11-27T12:59:19.543Z,6.90
2018-11-27T13:01:24.319Z,7.70
2018-11-27T13:03:29.200Z,6.13
2018-11-27T13:05:38.326Z,6.00
2018-11-27T13:07:43.564Z,6.37
2018-11-27T13:09:48.627Z,5.80
2018-11-27T13:11:53.540Z,6.43
2018-11-27T13:13:58.377Z,7.37
2018-11-27T13:16:03.297Z,6.80
2018-11-27T13:18:09.703Z,7.87
2018-11-27T13:20:16.428Z,7.03
2018-11-27T13:22:21.143Z,8.10
2018-11-27T13:24:26.181Z,8.23
2018-11-27T13:26:31.062Z,8.00
2018-11-27T13:28:36.046Z,7.63
2018-11-27T13:31:14.492Z,7.37
2018-11-27T13:33:29.188Z,6.93
2018-11-27T13:35:34.316Z,6.50
2018-11-27T13:37:39.670Z,7.70
2018-11-27T13:39:44.583Z,8.00
2018-11-27T13:41:49.797Z,8.10
2018-11-27T13:43:54.740Z,7.67
2018-11-27T13:46:01.611Z,6.40
2018-11-27T13:48:07.675Z,8.33
2018-11-27T13:50:17.458Z,8.13
2018-11-27T13:52:22.293Z,7.20
2018-11-27T13:54:27.086Z,7.40
2018-11-27T13:56:31.978Z,7.60
2018-11-27T13:58:37.040Z,9.20
2018-11-27T14:00:41.855Z,7.17
2018-11-27T14:02:50.716Z,7.97
2018-11-27T14:04:55.553Z,6.87
2018-11-27T14:07:00.298Z,8.90
2018-11-27T14:09:07.396Z,8.37
2018-11-27T14:11:12.263Z,8.57
2018-11-27T14:13:17.519Z,6.70
2018-11-27T14:15:25.435Z,8.47
2018-11-27T14:17:31.216Z,7.67
2018-11-27T14:19:35.998Z,7.27
2018-11-27T14:39:46.896Z,7.73
2018-11-27T14:41:51.758Z,8.07
2018-11-27T14:44:03.039Z,7.83
2018-11-27T15:04:15.663Z,7.73
2018-11-27T15:06:21.077Z,8.30
2018-11-27T15:08:26.452Z,7.97
2018-11-27T15:10:31.326Z,6.90
2018-11-27T15:12:36.420Z,9.07
2018-11-27T15:14:42.119Z,8.80
2018-11-27T15:16:47.227Z,8.10
2018-11-27T15:18:52.526Z,7.90
2018-11-27T15:20:57.489Z,8.53
2018-11-27T15:23:02.485Z,7.93
2018-11-27T15:25:09.529Z,8.03
2018-11-27T15:27:15.405Z,8.00
2018-11-27T15:29:20.560Z,8.10
2018-11-27T15:31:25.506Z,7.83
2018-11-27T15:33:30.908Z,7.73
2018-11-27T15:35:36.647Z,8.43
2018-11-27T15:37:42.872Z,8.47
2018-11-27T15:39:51.113Z,7.97
2018-11-27T15:42:05.091Z,7.90
2018-11-27T15:44:11.553Z,8.57
2018-11-27T15:46:17.496Z,9.00
2018-11-27T15:48:22.929Z,9.30
2018-11-27T15:50:28.562Z,7.60
2018-11-27T15:52:33.479Z,8.37
2018-11-27T15:54:39.368Z,8.27
2018-11-27T15:56:45.882Z,8.13
2018-11-27T15:58:52.914Z,7.67
2018-11-27T16:01:06.190Z,9.20
2018-11-27T16:03:11.099Z,7.40
2018-11-27T16:05:21.717Z,8.10
2018-11-27T16:07:27.705Z,7.27
2018-11-27T16:09:32.743Z,7.60
2018-11-27T16:11:38.176Z,6.90
2018-11-27T16:13:43.361Z,6.60
2018-11-27T16:15:48.447Z,7.53
2018-11-27T16:17:53.376Z,9.00
2018-11-27T16:19:58.180Z,9.57
2018-11-27T16:22:03.008Z,7.30
2018-11-27T16:24:08.071Z,7.77
2018-11-27T16:26:13.246Z,8.13
2018-11-27T16:28:18.408Z,8.00
2018-11-27T16:30:31.080Z,7.70
2018-11-27T16:32:36.286Z,8.20
2018-11-27T16:34:41.470Z,7.30
2018-11-27T16:36:56.767Z,7.37
2018-11-27T16:39:04.578Z,7.30
2018-11-27T16:41:21.591Z,6.67
2018-11-27T16:43:27.774Z,9.57
2018-11-27T16:45:39.718Z,8.13
2018-11-27T16:47:46.487Z,8.93
2018-11-27T16:49:51.433Z,8.30
2018-11-27T16:52:00.919Z,8.00
2018-11-27T16:54:07.545Z,8.40
2018-11-27T16:56:20.006Z,8.90
2018-11-27T16:58:27.793Z,8.60
2018-11-27T17:00:42.622Z,8.60
2018-11-27T17:05:07.382Z,6.90
2018-11-27T17:07:12.850Z,9.10
2018-11-27T17:11:45.218Z,8.37
2018-11-27T17:13:54.146Z,8.60
2018-11-27T17:16:00.195Z,8.07
2018-11-27T17:18:11.513Z,7.60
2018-11-27T17:20:31.443Z,8.30
2018-11-27T17:22:37.668Z,9.00
2018-11-27T17:24:43.796Z,7.13
2018-11-27T17:26:50.950Z,8.10
2018-11-27T17:28:56.874Z,7.43
2018-11-27T17:31:12.831Z,7.83
2018-11-27T17:33:33.104Z,7.30
2018-11-27T17:35:40.114Z,7.87
2018-11-27T17:37:46.092Z,8.10
2018-11-27T17:40:02.300Z,8.27
2018-11-27T17:42:10.485Z,7.67
2018-11-27T17:44:18.139Z,8.30
2018-11-27T17:46:24.328Z,7.60
2018-11-27T17:48:29.702Z,7.57
2018-11-27T17:50:35.289Z,7.00
2018-11-27T17:52:42.505Z,7.10
2018-11-27T17:54:48.491Z,7.67
2018-11-27T17:56:54.291Z,6.57
2018-11-27T17:58:59.459Z,7.37
2018-11-27T18:01:05.219Z,7.03
2018-11-27T18:03:18.009Z,7.80
2018-11-27T18:05:32.064Z,7.70
2018-11-27T18:07:38.562Z,7.20
2018-11-27T18:14:30.592Z,7.90
2018-11-27T18:16:38.261Z,7.20
2018-11-27T18:21:05.923Z,6.63
2018-11-27T18:23:16.640Z,7.10
2018-11-27T18:25:24.411Z,7.20
2018-11-27T18:27:30.790Z,6.87
2018-11-27T18:29:39.900Z,7.40
2018-11-27T18:31:55.171Z,7.37
2018-11-27T18:34:06.057Z,7.17
2018-11-27T18:36:14.118Z,7.30
2018-11-27T18:38:22.299Z,7.97
2018-11-27T18:40:29.689Z,7.50
2018-11-27T18:42:39.833Z,6.90
2018-11-27T18:44:46.698Z,6.27
2018-11-27T18:46:53.427Z,7.57
2018-11-27T18:49:00.337Z,7.83
2018-11-27T18:51:06.817Z,7.77
2018-11-27T18:53:12.439Z,7.37
2018-11-27T18:55:18.818Z,8.03
2018-11-27T18:57:29.688Z,7.47
2018-11-27T18:59:42.929Z,8.00
2018-11-27T19:01:48.807Z,7.60
2018-11-27T19:03:54.748Z,7.40
2018-11-27T19:08:32.029Z,7.67
2018-11-27T19:10:38.276Z,8.37
2018-11-27T19:12:45.903Z,7.70
2018-11-27T19:14:56.804Z,8.33
2018-11-27T19:17:13.993Z,7.63
2018-11-27T19:19:21.448Z,7.93
2018-11-27T19:21:30.554Z,8.20
2018-11-27T19:23:37.439Z,8.10
2018-11-27T19:25:45.449Z,7.20
2018-11-27T19:27:52.742Z,6.40
2018-11-27T19:30:01.046Z,9.20
2018-11-27T19:32:15.756Z,7.40
2018-11-27T19:34:23.548Z,8.40
2018-11-27T19:36:33.662Z,8.33
2018-11-27T19:38:48.137Z,9.17
2018-11-27T19:41:10.566Z,7.63
2018-11-27T19:45:42.929Z,8.20
2018-11-27T19:50:14.359Z,9.73
2018-11-27T19:52:22.561Z,9.87
2018-11-27T19:54:50.285Z,9.40
2018-11-27T19:59:46.941Z,8.40
2018-11-27T20:02:01.743Z,9.63
2018-11-27T20:07:19.305Z,8.03
2018-11-27T20:09:29.198Z,8.93
2018-11-27T20:11:35.452Z,9.10
2018-11-27T20:13:47.743Z,8.23
2018-11-27T20:15:55.699Z,7.97
2018-11-27T20:18:04.636Z,8.60
2018-11-27T20:20:17.664Z,8.87
2018-11-27T20:22:31.290Z,8.20
2018-11-27T20:24:39.833Z,8.67
2018-11-27T20:26:47.468Z,8.53
2018-11-27T20:28:54.094Z,8.80
2018-11-27T20:31:00.360Z,8.80
2018-11-27T20:33:13.605Z,8.10
2018-11-27T20:35:30.541Z,8.80
2018-11-27T20:37:45.719Z,9.30
2018-11-27T20:40:01.792Z,10.23
2018-11-27T20:42:14.771Z,9.27
2018-11-27T20:44:31.764Z,8.17
2018-11-27T20:46:41.649Z,8.83
2018-11-27T20:48:50.716Z,8.40
2018-11-27T20:51:14.879Z,9.27
2018-11-27T20:55:41.295Z,8.07
2018-11-27T21:00:36.532Z,9.00
2018-11-27T21:02:44.553Z,8.80
2018-11-27T21:04:56.337Z,7.53
2018-11-27T21:27:46.416Z,7.50
2018-11-27T21:30:07.111Z,8.93
2018-11-27T21:32:23.926Z,9.20
2018-11-27T21:34:29.903Z,9.40
2018-11-27T21:36:38.272Z,8.43
2018-11-27T21:38:50.783Z,8.90
2018-11-27T21:41:02.048Z,8.80
2018-11-27T21:43:19.441Z,9.83
2018-11-27T21:47:47.685Z,9.30
2018-11-27T21:49:57.389Z,8.60
2018-11-27T21:52:16.032Z,10.10
2018-11-27T21:54:23.403Z,7.70
2018-11-27T21:56:42.493Z,8.40
2018-11-27T21:58:48.579Z,8.30
2018-11-27T22:01:04.565Z,9.13
2018-11-27T22:03:12.985Z,9.00
2018-11-27T22:05:19.582Z,9.30
2018-11-27T22:07:28.426Z,8.83
2018-11-27T22:09:37.079Z,8.50
2018-11-27T22:11:46.932Z,8.17
2018-11-27T22:13:54.559Z,9.83
2018-11-27T22:15:59.878Z,8.43
2018-11-27T22:18:13.141Z,8.03
2018-11-27T22:23:08.950Z,8.20
2018-11-27T22:25:14.581Z,8.03
2018-11-27T22:27:22.070Z,7.47
2018-11-27T22:29:29.374Z,8.40
2018-11-27T22:31:34.986Z,9.47
2018-11-27T22:33:57.593Z,10.37
2018-11-27T22:36:05.827Z,8.87
2018-11-27T22:38:13.358Z,8.50
2018-11-27T22:40:21.588Z,7.43
2018-11-27T22:42:33.272Z,9.37
2018-11-27T22:44:38.921Z,9.37
2018-11-27T22:46:44.219Z,9.67
2018-11-27T22:48:50.397Z,10.90
2018-11-27T22:51:06.929Z,9.50
2018-11-27T22:53:19.084Z,8.03
2018-11-27T22:55:30.077Z,8.67
2018-11-27T22:57:35.944Z,10.50
2018-11-27T22:59:42.175Z,9.63
2018-11-27T23:01:47.694Z,9.70
2018-11-27T23:03:53.185Z,9.13
2018-11-27T23:06:01.008Z,9.27
2018-11-27T23:08:06.881Z,9.40
2018-11-27T23:10:13.828Z,8.57
2018-11-27T23:12:19.721Z,8.37
2018-11-27T23:14:24.918Z,9.90
2018-11-27T23:16:31.457Z,9.30
2018-11-27T23:18:36.779Z,8.97
2018-11-27T23:20:42.024Z,9.13
2018-11-27T23:22:47.529Z,9.03
2018-11-27T23:24:53.570Z,9.30
2018-11-27T23:26:58.821Z,10.10
2018-11-27T23:29:05.998Z,10.33
2018-11-27T23:31:11.264Z,9.87
2018-11-27T23:33:19.470Z,8.37
2018-11-27T23:35:35.829Z,9.17
2018-11-27T23:37:43.774Z,8.30
2018-11-27T23:39:52.113Z,8.47
2018-11-27T23:41:59.527Z,9.87
2018-11-27T23:44:04.920Z,9.50
2018-11-27T23:46:12.249Z,9.57
2018-11-27T23:48:21.505Z,9.13
2018-11-27T23:50:28.835Z,9.87
2018-11-27T23:52:36.112Z,11.00
2018-11-27T23:54:44.535Z,8.20
2018-11-27T23:56:53.079Z,9.80
2018-11-27T23:59:00.604Z,10.30
